Coalton, Illinois
Current Conditions -  °F | °C
As of 11:15 AM on Friday 28 Nov 2014 (Local Time) from KTAZ Reporting Station
Clear Clear  
Wind Chill: 23°   Ceiling: Unl
Heat Index: 34°   Visibility: 10mi
Dew Point: 28°   Wind: 18mph
Humidity: 81%   Direction: 170°S
Pressure: 30.14"   Gusts: 24mph
Location:  39.3183°N, 89.2952°W
Report Text: KTAZ 281715Z AUTO 17016G21KT 10SM CLR 01/M02 A3014 RMK AO2 P0001
Loading
Personal Weather Stations






























Interactive Weather Map New forecast layout! Learn more

10-Day Weather Forecast

Advertisements
Track Severe Weather on mobile